Flight Track Log - Related Links

Times and Time Zones

All times are in EDT time to prevent confusion due to time zone crossing. See the MTN8324 flight status page for this flight to view local times or setup timezone preferences in your user account.

Time Position Orientation Groundspeed Altitude Reporting Facility
EDT Latitude Longitude Course Direction KTS MPH feet Rate Location/Type
Wed 04:43:56 AM 40.7167 -74.1333 342° North 148 170 2,000  Level New York TRACON
Wed 04:44:56 AM 40.7667 -74.1333 360° North 178 205 3,500 1,550 Climbing New York TRACON
Wed 04:45:56 AM 40.8167 -74.1667 333° Northwest 187 215 5,100 1,600 Climbing New York TRACON
Wed 04:46:56 AM 40.8667 -74.1833 346° North 196 226 6,700 1,600 Climbing New York TRACON
Wed 04:47:56 AM 40.9167 -74.2167 333° Northwest 192 221 8,300 1,451 Climbing New York TRACON
Wed 04:49:00 AM 41.1487 -74.3790 342° North  Level FlightAware Approximate
Wed 04:49:29 AM 40.9806 -74.2756 325° Northwest 194 223 10,400  Level New York Center
Wed 04:50:28 AM 41.0294 -74.3111 331° Northwest 194 223 11,500 800 Climbing New York Center
Wed 04:51:29 AM 41.0825 -74.3494 331° Northwest 207 238 12,000 248 Climbing New York Center
Wed 04:52:29 AM 41.1372 -74.3911 330° Northwest 231 266 12,000  Level New York Center
Wed 04:53:27 AM 41.2108 -74.4419 333° Northwest 255 293 12,000  Level New York Center
Wed 04:54:27 AM 41.2697 -74.4864 330° Northwest 268 308 12,000  Level New York Center
Wed 04:55:29 AM 41.3450 -74.5431 331° Northwest 273 314 12,000 439 Level New York Center
Wed 04:56:30 AM 41.4019 -74.5850 331° Northwest 273 314 12,900 1,109 Climbing New York Center
Wed 04:57:28 AM 41.4453 -74.6622 307° West 243 280 14,200 1,231 Climbing New York Center
Wed 04:58:27 AM 41.4764 -74.7250 303° West 237 273 15,300 900 Climbing New York Center
Wed 04:59:28 AM 41.5136 -74.7964 305° West 220 253 16,000 344 Climbing New York Center
Wed 05:00:29 AM 41.5489 -74.8650 305° West 226 260 16,000  Level New York Center
Wed 05:01:28 AM 41.5875 -74.9506 301° West 261 300 16,000  Level New York Center
Wed 05:02:27 AM 41.6322 -75.0394 304° West 267 307 16,000  Level New York Center
Wed 05:03:28 AM 41.6728 -75.1253 302° West 272 313 16,000  Level New York Center
Wed 05:04:27 AM 41.7133 -75.2114 302° West 272 313 16,000  Level New York Center
Wed 05:05:28 AM 41.7500 -75.2889 302° West 272 313 16,000  Level New York Center
Wed 05:06:28 AM 41.7906 -75.3722 303° West 272 313 16,000  Level New York Center
Wed 05:07:29 AM 41.8369 -75.4644 304° West 272 313 16,000  Level New York Center
Wed 05:08:28 AM 41.8772 -75.5508 302° West 272 313 16,000  Level New York Center
Wed 05:09:29 AM 41.9158 -75.6261 305° West 272 313 16,000  Level New York Center
Wed 05:10:28 AM 41.9597 -75.7186 303° West 272 313 16,000  Level New York Center
Wed 05:11:27 AM 41.9978 -75.8053 301° West 272 313 16,000  Level New York Center
Wed 05:12:27 AM 42.0361 -75.8836 303° West 277 319 16,000  Level New York Center
Wed 05:13:28 AM 42.0819 -75.9764 304° West 277 319 16,000  Level New York Center
Wed 05:14:28 AM 42.1219 -76.0636 302° West 277 319 16,000  Level New York Center
Wed 05:15:28 AM 42.1619 -76.1450 304° West 277 319 16,000  Level New York Center
Wed 05:16:30 AM 42.1975 -76.2347 298° West 272 313 16,000  Level New York Center
Wed 05:17:29 AM 42.2372 -76.3192 302° West 272 313 16,000  Level New York Center
Wed 05:18:28 AM 42.2728 -76.4064 299° West 272 313 16,000  Level New York Center
Wed 05:19:27 AM 42.3103 -76.4908 301° West 267 307 16,000  Level New York Center
Wed 05:20:09 AM 42.3353 -76.5464 301° West 264 304 16,000  Level Cleveland Center
Wed 05:21:09 AM 42.3717 -76.6311 300° West 264 304 16,000  Level Cleveland Center
Wed 05:22:09 AM 42.4078 -76.7161 300° West 264 304 16,000  Level Cleveland Center
Wed 05:23:09 AM 42.4442 -76.8011 300° West 264 304 16,000  Level Cleveland Center
Wed 05:24:09 AM 42.4825 -76.8919 300° West 264 304 16,000  Level Cleveland Center
Wed 05:25:09 AM 42.5183 -76.9744 301° West 264 304 16,000 -300 Level Cleveland Center
Wed 05:26:09 AM 42.5444 -77.0714 290° West 264 304 15,400 -700 Descending Cleveland Center
Wed 05:27:09 AM 42.5683 -77.1744 288° West 278 320 14,600 -700 Descending Cleveland Center
Wed 05:28:09 AM 42.5942 -77.2775 289° West 285 328 14,000 -550 Descending Cleveland Center
Wed 05:29:09 AM 42.6181 -77.3806 288° West 285 328 13,500 -600 Descending Cleveland Center
Wed 05:30:09 AM 42.6439 -77.4922 287° West 285 328 12,800 -700 Descending Cleveland Center
Wed 05:31:09 AM 42.6694 -77.5928 289° West 285 328 12,100 -400 Descending Cleveland Center
Wed 05:32:09 AM 42.6925 -77.6706 292° West 285 328 12,000 -50 Descending Cleveland Center
Wed 05:33:09 AM 42.7183 -77.7883 287° West 279 321 12,000  Level Cleveland Center
Wed 05:34:09 AM 42.7414 -77.8833 288° West 279 321 12,000  Level Cleveland Center
Wed 05:35:09 AM 42.7644 -77.9814 288° West 279 321 12,000 -500 Level Cleveland Center
Wed 05:36:09 AM 42.7894 -78.0794 289° West 279 321 11,000 -750 Descending Cleveland Center
Wed 05:37:09 AM 42.8125 -78.1747 288° West 279 321 10,500 -1,250 Descending Cleveland Center
Wed 05:38:09 AM 42.8353 -78.2758 287° West 281 323 8,500 -1,950 Descending Cleveland Center
Wed 05:39:09 AM 42.8578 -78.3656 289° West 267 307 6,600 -1,950 Descending Cleveland Center
Wed 05:40:09 AM 42.8867 -78.4522 294° West 253 291 4,600 -1,300 Descending Cleveland Center
Wed 05:41:09 AM 42.9272 -78.5106 314° West 236 272 4,000 -750 Descending Cleveland Center
Wed 05:42:09 AM 42.9658 -78.5772 308° West 236 272 3,100 -1,000 Descending Cleveland Center
Wed 05:43:09 AM 42.9983 -78.6444 303° West 202 232 2,000 -778 Descending Cleveland Center
Wed 05:43:57 AM 42.9833 -78.6667 227° Southwest 114 131 1,700 -444 Descending Buffalo TRACON
Wed 05:44:57 AM 42.9667 -78.7000 236° Southwest 95 109 1,200 -500 Descending Buffalo TRACON
Wed 05:46:00 AM 42.9333 -78.7167 289° West  Level FlightAware Approximate
Wed 05:53:00 AM 42.9404 -78.7306 289° West  Level Estimated
Wed 05:54:00 AM 42.9404 -78.7306 289° West  Level Estimated

Login

Don't have an account? Register now (free) for customized features, flight alerts, and more!